Time;durP1;ratioP1;P1;durP2;ratioP2;P2;SDS_P1;SDS_P2;PMS_P1;PMS_P2;Temp;Humidity;BMP_temperature;BMP_pressure;BME280_temperature;BME280_humidity;BME280_pressure;Samples;Min_cycle;Max_cycle;Signal;HPM_P1;HPM_P2
2023/01/29 00:00:22;;;;;;;16.00;12.52;;;1.20;99.90;;;;;;5078090;28;20879;-62
2023/01/29 00:02:49;;;;;;;17.73;13.23;;;1.30;99.90;;;;;;5078836;28;20407;-62
2023/01/29 00:05:15;;;;;;;18.60;13.73;;;1.30;99.90;;;;;;5077662;28;20415;-62
2023/01/29 00:07:44;;;;;;;15.23;13.18;;;1.20;99.90;;;;;;5078129;28;20415;-63
2023/01/29 00:10:12;;;;;;;16.23;12.48;;;1.20;99.90;;;;;;5080423;28;20417;-62
2023/01/29 00:12:39;;;;;;;15.90;12.20;;;1.10;99.90;;;;;;5077690;28;20918;-63
2023/01/29 00:15:06;;;;;;;17.90;12.48;;;1.10;99.90;;;;;;5077153;28;20474;-63
2023/01/29 00:17:33;;;;;;;17.23;12.90;;;1.10;99.90;;;;;;5076285;28;20452;-62
2023/01/29 00:20:00;;;;;;;15.98;12.80;;;1.10;99.90;;;;;;5076972;28;20420;-62
2023/01/29 00:22:27;;;;;;;18.23;13.60;;;1.10;99.90;;;;;;5076415;28;20500;-62
2023/01/29 00:24:55;;;;;;;17.70;13.07;;;1.10;99.90;;;;;;5076607;28;20419;-61
2023/01/29 00:27:22;;;;;;;16.85;13.13;;;1.10;99.90;;;;;;5078934;28;20407;-61
2023/01/29 00:30:07;;;;;;;15.70;12.25;;;1.10;99.90;;;;;;5080654;28;20422;-62
2023/01/29 00:32:34;;;;;;;17.87;13.43;;;1.10;99.90;;;;;;5081232;28;20427;-62
2023/01/29 00:35:01;;;;;;;16.85;12.60;;;1.00;99.90;;;;;;5081247;28;20408;-62
2023/01/29 00:37:28;;;;;;;18.50;12.70;;;1.00;99.90;;;;;;5079955;28;20415;-62
2023/01/29 00:39:56;;;;;;;18.33;13.35;;;1.10;99.90;;;;;;5079774;28;20895;-62
2023/01/29 00:45:08;;;;;;;16.27;13.40;;;1.00;99.90;;;;;;5079878;28;20484;-61
2023/01/29 00:47:35;;;;;;;17.13;12.77;;;1.00;99.90;;;;;;5079756;28;20415;-63
2023/01/29 00:50:03;;;;;;;18.75;13.57;;;0.90;99.90;;;;;;5078606;28;20875;-63
2023/01/29 00:52:30;;;;;;;16.88;13.48;;;0.90;99.90;;;;;;5078638;28;20914;-62
2023/01/29 00:55:00;;;;;;;16.27;13.57;;;0.90;99.90;;;;;;5078121;28;20415;-62
2023/01/29 00:57:29;;;;;;;17.77;13.00;;;0.90;99.90;;;;;;5077998;28;20400;-62
2023/01/29 00:59:55;;;;;;;17.08;12.90;;;0.90;99.90;;;;;;5078528;28;20427;-63
2023/01/29 01:05:12;;;;;;;17.90;13.60;;;1.00;99.90;;;;;;5079720;28;20473;-62
2023/01/29 01:07:39;;;;;;;16.60;12.65;;;1.00;99.90;;;;;;5078774;28;20434;-61
2023/01/29 01:10:20;;;;;;;17.27;13.68;;;1.00;99.90;;;;;;5080525;28;20411;-63
2023/01/29 01:12:47;;;;;;;16.90;13.40;;;1.10;99.90;;;;;;5078184;28;20498;-61
2023/01/29 01:15:14;;;;;;;17.50;13.00;;;1.10;99.90;;;;;;5079246;28;20430;-61
2023/01/29 01:17:41;;;;;;;17.65;14.10;;;1.10;99.90;;;;;;5079177;28;20427;-62
2023/01/29 01:20:09;;;;;;;16.67;12.95;;;1.10;99.90;;;;;;5078725;28;20821;-62
2023/01/29 01:22:36;;;;;;;15.90;12.93;;;1.10;99.90;;;;;;5079426;28;20411;-63
2023/01/29 01:25:03;;;;;;;17.80;13.20;;;1.10;99.90;;;;;;5079299;28;20411;-62
2023/01/29 01:27:31;;;;;;;16.25;12.40;;;1.10;99.90;;;;;;5078970;28;20412;-62
2023/01/29 01:29:58;;;;;;;17.67;13.17;;;1.10;99.90;;;;;;5081249;28;20429;-61
2023/01/29 01:32:24;;;;;;;15.77;12.38;;;1.10;99.90;;;;;;5079680;28;20414;-62
2023/01/29 01:34:52;;;;;;;17.15;13.20;;;1.20;99.90;;;;;;5079541;28;20420;-62
2023/01/29 01:37:20;;;;;;;16.08;12.10;;;1.10;99.90;;;;;;5079243;28;20450;-61
2023/01/29 01:39:47;;;;;;;16.20;12.57;;;1.10;99.90;;;;;;5081064;28;20416;-63
2023/01/29 01:42:14;;;;;;;15.77;12.80;;;1.10;99.90;;;;;;5081412;28;20411;-63
2023/01/29 01:44:59;;;;;;;16.90;12.85;;;1.10;99.90;;;;;;5082748;28;20420;-61
2023/01/29 01:47:31;;;;;;;17.10;12.70;;;1.00;99.90;;;;;;5081373;28;20472;-62
2023/01/29 01:50:02;;;;;;;17.85;12.90;;;1.00;99.90;;;;;;5077701;28;20412;-61
2023/01/29 01:52:31;;;;;;;17.48;13.55;;;1.00;99.90;;;;;;5078146;28;20477;-62
2023/01/29 01:54:59;;;;;;;17.55;12.93;;;1.00;99.90;;;;;;5077165;28;20415;-62
2023/01/29 01:57:27;;;;;;;17.10;13.30;;;1.10;99.90;;;;;;5076165;28;20435;-63
2023/01/29 02:00:00;;;;;;;17.13;12.87;;;1.10;99.90;;;;;;5075500;28;20899;-62
2023/01/29 02:10:45;;;;;;;18.83;13.45;;;1.10;99.90;;;;;;5074917;28;20392;-63
2023/01/29 02:13:15;;;;;;;17.90;12.60;;;1.10;99.90;;;;;;5074946;28;20422;-62
2023/01/29 02:15:45;;;;;;;17.37;13.20;;;1.10;99.90;;;;;;5075546;28;20419;-62
2023/01/29 02:18:12;;;;;;;18.70;13.15;;;1.10;99.90;;;;;;5076976;28;20771;-62
2023/01/29 02:20:43;;;;;;;19.60;13.70;;;1.10;99.90;;;;;;5075912;28;20411;-62
2023/01/29 02:23:32;;;;;;;16.88;13.13;;;1.10;99.90;;;;;;5074597;28;20429;-62
2023/01/29 02:26:15;;;;;;;17.95;13.45;;;1.20;99.90;;;;;;5075086;28;20404;-62
2023/01/29 02:28:47;;;;;;;16.10;12.18;;;1.20;99.90;;;;;;5074837;28;20875;-62
2023/01/29 02:31:28;;;;;;;19.25;13.00;;;1.30;99.90;;;;;;5075053;28;20486;-63
2023/01/29 02:34:07;;;;;;;18.08;13.23;;;1.30;99.90;;;;;;5074159;28;20415;-62
2023/01/29 02:36:38;;;;;;;17.10;12.50;;;1.40;99.90;;;;;;5075340;28;20483;-63
2023/01/29 02:39:14;;;;;;;16.50;12.50;;;1.40;99.90;;;;;;5073927;28;20411;-64
2023/01/29 02:41:45;;;;;;;18.52;12.40;;;1.50;99.90;;;;;;5074762;28;20475;-63
2023/01/29 02:44:21;;;;;;;17.15;12.98;;;1.50;99.90;;;;;;5075734;28;20514;-62
2023/01/29 02:46:56;;;;;;;18.60;11.95;;;1.50;99.90;;;;;;5073779;28;20422;-62
2023/01/29 02:49:30;;;;;;;18.13;12.63;;;1.60;99.90;;;;;;5072319;28;20415;-63
2023/01/29 02:52:02;;;;;;;16.67;12.63;;;1.60;99.90;;;;;;5075123;28;20787;-62
2023/01/29 02:54:38;;;;;;;15.48;12.05;;;1.70;99.90;;;;;;5076731;28;20423;-61
2023/01/29 02:57:15;;;;;;;15.65;11.90;;;1.70;99.90;;;;;;5077348;28;20431;-61
2023/01/29 02:59:48;;;;;;;17.33;12.30;;;1.70;99.90;;;;;;5076984;28;20494;-62
2023/01/29 03:02:19;;;;;;;15.60;12.23;;;1.70;99.90;;;;;;5077836;28;20408;-61
2023/01/29 03:04:52;;;;;;;17.40;12.50;;;1.70;99.90;;;;;;5079677;28;20411;-62
2023/01/29 03:10:06;;;;;;;18.25;12.13;;;1.70;99.90;;;;;;5076607;28;20462;-62
2023/01/29 03:12:38;;;;;;;17.75;12.70;;;1.70;99.90;;;;;;5077546;28;20422;-63
2023/01/29 03:15:15;;;;;;;18.13;13.05;;;1.70;99.90;;;;;;5078353;28;20412;-62
2023/01/29 03:17:46;;;;;;;14.80;11.18;;;1.70;99.90;;;;;;5077898;28;20530;-62
2023/01/29 03:20:18;;;;;;;18.45;13.13;;;1.70;99.90;;;;;;5078493;28;20416;-62
2023/01/29 03:22:52;;;;;;;17.50;12.52;;;1.70;99.90;;;;;;5076713;28;20820;-62
2023/01/29 03:33:46;;;;;;;17.77;13.05;;;1.70;99.90;;;;;;5075588;28;20487;-62
2023/01/29 03:36:18;;;;;;;16.60;12.98;;;1.70;99.90;;;;;;5075365;28;20496;-61
2023/01/29 03:38:45;;;;;;;18.97;12.50;;;1.70;99.90;;;;;;5074304;28;20411;-62
2023/01/29 03:41:22;;;;;;;17.73;12.68;;;1.70;99.90;;;;;;5074542;28;20790;-62
2023/01/29 03:43:56;;;;;;;16.70;12.30;;;1.70;99.90;;;;;;5074049;28;20419;-62
2023/01/29 03:46:30;;;;;;;18.10;13.52;;;1.70;99.90;;;;;;5073547;28;20511;-62
2023/01/29 03:49:03;;;;;;;19.98;13.00;;;1.70;99.90;;;;;;5073846;28;20477;-62
2023/01/29 03:51:35;;;;;;;18.20;13.20;;;1.70;99.90;;;;;;5072767;28;20905;-62
2023/01/29 03:54:08;;;;;;;17.97;13.53;;;1.70;99.90;;;;;;5072670;28;20427;-62
2023/01/29 03:56:44;;;;;;;18.60;12.38;;;1.70;99.90;;;;;;5073310;28;20428;-63
2023/01/29 03:59:20;;;;;;;16.80;12.70;;;1.60;99.90;;;;;;5073283;28;20412;-62
2023/01/29 04:01:52;;;;;;;18.90;13.70;;;1.60;99.90;;;;;;5072445;28;20787;-62
2023/01/29 04:04:24;;;;;;;18.85;13.20;;;1.60;99.90;;;;;;5072885;28;20419;-62
2023/01/29 04:06:52;;;;;;;16.83;12.57;;;1.70;99.90;;;;;;5072402;28;20411;-62
2023/01/29 04:11:11;;;;;;;19.33;13.27;;;1.70;99.90;;;;;;5085075;27;1953477;-62
2023/01/29 04:13:39;;;;;;;18.23;13.13;;;1.70;99.90;;;;;;5133234;28;20439;-63
2023/01/29 04:16:12;;;;;;;17.50;13.05;;;1.70;99.90;;;;;;5130717;28;20412;-63
2023/01/29 04:18:39;;;;;;;16.58;12.15;;;1.70;99.90;;;;;;5130583;28;20778;-62
2023/01/29 04:21:07;;;;;;;19.60;13.18;;;1.70;99.90;;;;;;5130427;28;20421;-61
2023/01/29 04:23:33;;;;;;;16.40;12.32;;;1.70;99.90;;;;;;5131528;28;20412;-63
2023/01/29 04:26:24;;;;;;;17.20;12.93;;;1.70;99.90;;;;;;5130507;28;20412;-62
2023/01/29 04:29:10;;;;;;;16.70;12.60;;;1.80;99.90;;;;;;5131319;28;20416;-62
2023/01/29 04:31:46;;;;;;;18.77;12.93;;;1.80;99.90;;;;;;5130893;28;20419;-63
2023/01/29 04:34:23;;;;;;;18.77;12.30;;;1.80;99.90;;;;;;5130825;28;20411;-63
2023/01/29 04:37:01;;;;;;;18.23;13.37;;;1.80;99.90;;;;;;5130481;28;20435;-61
2023/01/29 04:39:37;;;;;;;16.85;12.35;;;1.80;99.90;;;;;;5131874;28;20462;-61
2023/01/29 04:42:12;;;;;;;16.55;12.00;;;1.80;99.90;;;;;;5131135;28;20408;-62
2023/01/29 04:44:43;;;;;;;16.02;11.65;;;1.80;99.90;;;;;;5130995;28;20441;-62
2023/01/29 04:47:21;;;;;;;16.73;12.60;;;1.90;99.90;;;;;;5130801;28;20411;-62
2023/01/29 04:49:56;;;;;;;17.02;12.40;;;1.90;99.90;;;;;;5130038;28;20506;-62
2023/01/29 04:52:32;;;;;;;15.05;12.15;;;1.90;99.90;;;;;;5131158;28;20418;-62
2023/01/29 04:55:06;;;;;;;15.80;11.95;;;1.90;99.90;;;;;;5130754;28;20415;-62
2023/01/29 04:57:45;;;;;;;18.40;11.75;;;1.90;99.90;;;;;;5130441;28;20438;-63
2023/01/29 05:00:16;;;;;;;16.55;11.82;;;1.90;99.90;;;;;;5130393;28;20457;-63
2023/01/29 05:02:44;;;;;;;16.92;12.15;;;1.90;99.90;;;;;;5130094;28;20411;-63
2023/01/29 05:05:14;;;;;;;15.65;12.25;;;2.00;99.90;;;;;;5129653;28;20408;-61
2023/01/29 05:07:43;;;;;;;17.80;12.53;;;2.00;99.90;;;;;;5130032;28;20422;-62
2023/01/29 05:10:12;;;;;;;17.70;11.73;;;2.00;99.90;;;;;;5129191;28;20922;-62
2023/01/29 05:12:43;;;;;;;17.50;12.77;;;2.00;99.90;;;;;;5129916;28;20407;-61
2023/01/29 05:15:15;;;;;;;16.40;11.90;;;2.00;99.90;;;;;;5130438;28;20419;-62
2023/01/29 05:17:42;;;;;;;16.40;12.55;;;2.00;99.90;;;;;;5130162;28;20407;-63
2023/01/29 05:20:11;;;;;;;17.33;11.90;;;2.00;99.90;;;;;;5129333;28;20400;-62
2023/01/29 05:22:40;;;;;;;15.30;12.00;;;2.00;99.90;;;;;;5116719;28;20408;-62
2023/01/29 05:25:20;;;;;;;17.00;12.27;;;2.10;99.90;;;;;;5116447;28;20438;-62
2023/01/29 05:28:04;;;;;;;18.67;12.50;;;2.00;99.90;;;;;;5115746;28;20408;-62
2023/01/29 05:30:32;;;;;;;16.85;12.48;;;2.00;99.90;;;;;;5115751;28;20501;-63
2023/01/29 05:32:59;;;;;;;17.52;12.40;;;2.00;99.90;;;;;;5115880;28;20431;-62
2023/01/29 05:35:27;;;;;;;16.30;11.80;;;2.00;99.90;;;;;;5116573;28;20418;-62
2023/01/29 05:37:54;;;;;;;16.87;13.03;;;2.00;99.90;;;;;;5116295;28;20457;-62
2023/01/29 05:40:21;;;;;;;17.00;11.82;;;2.00;99.90;;;;;;5116330;28;20404;-62
2023/01/29 05:42:50;;;;;;;17.15;12.25;;;2.00;99.90;;;;;;5116258;28;20408;-62
2023/01/29 05:45:17;;;;;;;17.33;12.60;;;2.10;99.90;;;;;;5116670;28;20407;-62
2023/01/29 05:47:44;;;;;;;17.38;12.45;;;2.00;99.90;;;;;;5116775;28;20416;-62
2023/01/29 05:50:12;;;;;;;20.02;13.13;;;2.10;99.90;;;;;;5115954;28;20432;-62
2023/01/29 05:52:39;;;;;;;17.20;12.70;;;2.00;99.90;;;;;;5116558;28;20428;-62
2023/01/29 05:55:07;;;;;;;18.02;13.02;;;2.00;99.90;;;;;;5115249;28;20776;-62
2023/01/29 05:57:34;;;;;;;17.30;13.02;;;2.00;99.90;;;;;;5115238;28;20499;-62
2023/01/29 06:00:03;;;;;;;19.73;13.60;;;2.00;99.90;;;;;;5115412;28;20779;-61
2023/01/29 06:02:30;;;;;;;22.48;13.85;;;2.00;99.90;;;;;;5115348;28;20419;-62
2023/01/29 06:04:57;;;;;;;19.77;14.40;;;2.00;99.90;;;;;;5114871;28;20409;-62
2023/01/29 06:07:24;;;;;;;18.63;13.35;;;2.00;99.90;;;;;;5115119;28;20419;-62
2023/01/29 06:09:51;;;;;;;20.52;13.80;;;2.00;99.90;;;;;;5114922;28;20428;-62
2023/01/29 06:12:18;;;;;;;19.10;13.37;;;2.00;99.90;;;;;;5128027;28;20467;-62
2023/01/29 06:14:44;;;;;;;20.27;13.60;;;2.00;99.90;;;;;;5133103;28;20935;-62
2023/01/29 06:17:12;;;;;;;21.85;13.88;;;2.00;99.90;;;;;;5133752;28;20416;-62
2023/01/29 06:19:39;;;;;;;18.90;13.00;;;2.00;99.90;;;;;;5133549;28;20407;-62
2023/01/29 06:22:06;;;;;;;18.00;13.30;;;2.00;99.90;;;;;;5135850;28;20419;-62
2023/01/29 06:24:33;;;;;;;18.65;13.20;;;2.00;99.90;;;;;;5133351;28;20459;-62
2023/01/29 06:26:59;;;;;;;20.40;13.43;;;2.00;99.90;;;;;;5130678;28;20469;-63
2023/01/29 06:29:26;;;;;;;18.65;13.55;;;2.10;99.90;;;;;;5126706;28;20416;-63
2023/01/29 06:31:53;;;;;;;21.33;14.10;;;2.00;99.90;;;;;;5126365;28;20491;-62
2023/01/29 06:34:21;;;;;;;19.77;13.45;;;2.00;99.90;;;;;;5126500;28;20408;-61
2023/01/29 06:36:48;;;;;;;18.70;13.23;;;2.00;99.90;;;;;;5126273;28;20404;-62
2023/01/29 06:39:15;;;;;;;19.00;13.20;;;2.00;99.90;;;;;;5118337;28;20495;-63
2023/01/29 06:41:42;;;;;;;18.50;12.60;;;2.00;99.90;;;;;;5116755;28;20404;-63
2023/01/29 06:44:08;;;;;;;21.13;14.20;;;2.00;99.90;;;;;;5116462;28;20414;-63
2023/01/29 06:46:36;;;;;;;20.40;13.80;;;2.10;99.90;;;;;;5116741;28;20492;-61
2023/01/29 06:49:03;;;;;;;20.20;14.02;;;2.10;99.90;;;;;;5117533;28;20415;-62
2023/01/29 06:51:31;;;;;;;20.35;13.95;;;2.10;99.90;;;;;;5116636;28;20424;-62
2023/01/29 06:53:58;;;;;;;22.30;14.80;;;2.10;99.90;;;;;;5117039;28;20466;-63
2023/01/29 06:56:25;;;;;;;25.58;15.73;;;2.10;99.90;;;;;;5116463;28;20404;-62
2023/01/29 06:58:51;;;;;;;22.93;15.57;;;2.10;99.90;;;;;;5116208;28;20420;-62
2023/01/29 07:01:18;;;;;;;22.70;15.23;;;2.10;99.90;;;;;;5116108;28;20400;-61
2023/01/29 07:03:48;;;;;;;21.13;14.75;;;2.10;99.90;;;;;;5115750;28;20420;-61
2023/01/29 07:06:15;;;;;;;23.15;14.90;;;2.10;99.90;;;;;;5117055;28;20439;-62
2023/01/29 07:08:43;;;;;;;23.23;15.00;;;2.10;99.90;;;;;;5118933;28;20419;-62
2023/01/29 07:11:10;;;;;;;23.08;15.88;;;2.10;99.90;;;;;;5119362;28;20432;-62
2023/01/29 07:13:37;;;;;;;25.92;17.23;;;2.10;99.90;;;;;;5119158;28;20412;-61
2023/01/29 07:16:05;;;;;;;23.55;16.40;;;2.10;99.90;;;;;;5118099;28;20418;-61
2023/01/29 07:18:32;;;;;;;25.88;17.15;;;2.10;99.90;;;;;;5117679;28;20789;-62
2023/01/29 07:21:03;;;;;;;24.30;16.75;;;2.10;99.90;;;;;;5117844;28;20404;-62
2023/01/29 07:23:30;;;;;;;23.67;17.25;;;2.10;99.90;;;;;;5122890;28;20530;-63
2023/01/29 07:26:01;;;;;;;27.10;17.95;;;2.10;99.90;;;;;;5123925;28;20495;-62
2023/01/29 07:28:27;;;;;;;26.20;17.50;;;2.10;99.90;;;;;;5123128;28;20491;-63
2023/01/29 07:30:56;;;;;;;29.65;18.77;;;2.10;99.90;;;;;;5124415;28;20439;-63
2023/01/29 07:33:23;;;;;;;26.77;17.67;;;2.00;99.90;;;;;;5122867;28;20408;-61
2023/01/29 07:35:50;;;;;;;25.10;17.23;;;2.00;99.90;;;;;;5125407;28;20412;-61
2023/01/29 07:38:16;;;;;;;29.40;19.80;;;2.00;99.90;;;;;;5128571;28;20404;-61
2023/01/29 07:40:43;;;;;;;31.08;19.90;;;1.90;99.90;;;;;;5126627;28;20419;-63
2023/01/29 07:43:11;;;;;;;28.17;19.30;;;1.90;99.90;;;;;;5118872;28;20434;-62
2023/01/29 07:45:40;;;;;;;30.73;19.90;;;1.90;99.90;;;;;;5125517;28;20424;-62
2023/01/29 07:48:09;;;;;;;31.25;20.45;;;1.90;99.90;;;;;;5121164;28;20424;-61
2023/01/29 07:50:36;;;;;;;29.88;19.17;;;1.90;99.90;;;;;;5112822;28;20441;-61
2023/01/29 07:53:03;;;;;;;33.20;21.65;;;1.90;99.90;;;;;;5107594;28;20500;-62
2023/01/29 07:55:30;;;;;;;33.83;22.15;;;1.90;99.90;;;;;;5095321;28;20413;-62
2023/01/29 07:57:58;;;;;;;30.95;20.23;;;1.90;99.90;;;;;;5112462;28;20442;-62
2023/01/29 08:00:27;;;;;;;32.67;20.03;;;1.90;99.90;;;;;;5094374;28;20485;-62
2023/01/29 08:02:54;;;;;;;35.38;21.40;;;1.90;99.90;;;;;;5094395;28;20430;-62
2023/01/29 08:05:20;;;;;;;28.67;19.70;;;1.90;99.90;;;;;;5094212;28;20410;-62
2023/01/29 08:07:53;;;;;;;35.92;21.77;;;1.90;99.90;;;;;;5094648;28;20426;-62
2023/01/29 08:10:21;;;;;;;33.10;20.35;;;2.00;99.90;;;;;;5107634;28;20497;-62
2023/01/29 08:12:53;;;;;;;34.60;21.25;;;2.00;99.90;;;;;;5116492;28;20424;-62
2023/01/29 08:15:19;;;;;;;32.67;20.80;;;2.00;99.90;;;;;;5117547;28;20903;-62
2023/01/29 08:17:48;;;;;;;29.73;20.40;;;2.00;99.90;;;;;;5114849;28;20426;-63
2023/01/29 08:20:15;;;;;;;32.07;20.53;;;2.00;99.90;;;;;;5098209;28;20437;-62
2023/01/29 08:22:41;;;;;;;33.45;21.13;;;2.00;99.90;;;;;;5102659;28;20412;-62
2023/01/29 08:25:09;;;;;;;33.10;21.00;;;2.00;99.90;;;;;;5113684;28;20446;-62
2023/01/29 08:27:36;;;;;;;32.05;20.15;;;2.00;99.90;;;;;;5096207;28;20416;-63
2023/01/29 08:30:03;;;;;;;33.20;20.90;;;2.00;99.90;;;;;;5092451;28;20911;-63
2023/01/29 08:32:30;;;;;;;32.25;21.75;;;2.00;99.90;;;;;;5098096;28;20421;-62
2023/01/29 08:34:58;;;;;;;32.70;20.90;;;2.10;99.90;;;;;;5104393;28;20414;-62
2023/01/29 08:37:24;;;;;;;33.65;20.05;;;2.10;99.90;;;;;;5105935;28;20426;-62
2023/01/29 08:39:51;;;;;;;33.03;20.88;;;2.10;99.90;;;;;;5101158;28;20523;-62
2023/01/29 08:42:18;;;;;;;33.87;21.10;;;2.10;99.90;;;;;;5099763;28;20513;-63
2023/01/29 08:44:45;;;;;;;33.10;20.98;;;2.10;99.90;;;;;;5097118;28;20908;-63
2023/01/29 08:47:11;;;;;;;31.95;20.88;;;2.10;99.90;;;;;;5099225;28;20779;-63
2023/01/29 08:49:38;;;;;;;31.02;21.50;;;2.10;99.90;;;;;;5099208;28;20781;-62
2023/01/29 08:52:06;;;;;;;32.97;20.52;;;2.10;99.90;;;;;;5099832;28;20465;-61
2023/01/29 08:54:33;;;;;;;35.15;21.58;;;2.20;99.90;;;;;;5100782;28;20409;-62
2023/01/29 08:57:00;;;;;;;32.40;21.88;;;2.20;99.90;;;;;;5107667;28;20415;-62
2023/01/29 08:59:26;;;;;;;33.33;22.03;;;2.30;99.90;;;;;;5106860;28;20407;-61
2023/01/29 09:01:53;;;;;;;31.05;21.13;;;2.40;99.90;;;;;;5106089;28;20410;-62
2023/01/29 09:04:20;;;;;;;32.78;21.35;;;2.40;99.90;;;;;;5107858;28;20410;-63
2023/01/29 09:06:47;;;;;;;31.10;20.65;;;2.50;99.90;;;;;;5107938;28;20409;-63
2023/01/29 09:09:15;;;;;;;30.67;20.40;;;2.50;99.90;;;;;;5106556;28;20421;-61
2023/01/29 09:11:42;;;;;;;33.47;21.60;;;2.50;99.90;;;;;;5104954;28;20417;-62
2023/01/29 09:14:11;;;;;;;32.13;21.10;;;2.60;99.90;;;;;;5105159;28;20422;-62
2023/01/29 09:16:37;;;;;;;31.85;20.85;;;2.60;99.90;;;;;;5102445;28;20422;-62
2023/01/29 09:19:04;;;;;;;33.13;20.92;;;2.60;99.90;;;;;;5102223;28;20412;-62
2023/01/29 09:21:31;;;;;;;27.90;20.20;;;2.60;99.90;;;;;;5105234;28;20394;-62
2023/01/29 09:23:58;;;;;;;30.80;20.85;;;2.60;99.90;;;;;;5103066;28;20885;-62
2023/01/29 09:26:26;;;;;;;30.80;20.63;;;2.60;99.90;;;;;;5100509;28;20410;-62
2023/01/29 09:28:53;;;;;;;27.88;19.33;;;2.70;99.90;;;;;;5099535;28;20421;-62
2023/01/29 09:31:19;;;;;;;31.73;20.98;;;2.70;99.90;;;;;;5100665;28;20422;-63
2023/01/29 09:33:46;;;;;;;28.58;19.80;;;2.80;99.90;;;;;;5098192;28;20406;-62
2023/01/29 09:36:13;;;;;;;29.05;19.58;;;2.80;99.90;;;;;;5098937;28;20416;-61
2023/01/29 09:38:40;;;;;;;27.53;19.50;;;2.90;99.90;;;;;;5098551;28;20482;-62
2023/01/29 09:41:20;;;;;;;26.92;18.55;;;2.90;99.90;;;;;;5097288;28;20750;-63
2023/01/29 09:43:53;;;;;;;31.87;20.13;;;3.00;99.90;;;;;;5097597;28;20468;-63
2023/01/29 09:46:28;;;;;;;28.35;19.58;;;3.00;99.90;;;;;;5096983;28;20421;-63
2023/01/29 09:49:01;;;;;;;29.75;20.10;;;3.10;99.90;;;;;;5096218;28;20445;-63
2023/01/29 09:51:34;;;;;;;31.88;20.55;;;3.10;99.90;;;;;;5097763;28;20885;-63
2023/01/29 09:54:10;;;;;;;29.08;20.27;;;3.10;99.90;;;;;;5096469;28;20769;-63
2023/01/29 09:56:37;;;;;;;27.85;19.67;;;3.20;99.90;;;;;;5095709;28;20410;-63
2023/01/29 09:59:05;;;;;;;26.20;18.13;;;3.20;99.90;;;;;;5095005;28;20433;-62
2023/01/29 10:01:36;;;;;;;27.67;19.33;;;3.30;99.90;;;;;;5095532;28;20406;-63
2023/01/29 10:04:22;;;;;;;30.27;19.65;;;3.30;99.90;;;;;;5095523;28;20428;-62
2023/01/29 10:07:07;;;;;;;28.70;19.00;;;3.30;99.90;;;;;;5094809;28;20417;-63
2023/01/29 10:09:50;;;;;;;26.73;18.27;;;3.40;99.90;;;;;;5096340;28;20440;-63
2023/01/29 10:12:33;;;;;;;28.50;18.70;;;3.40;99.90;;;;;;5103911;28;20600;-63
2023/01/29 10:15:15;;;;;;;27.15;19.15;;;3.30;99.90;;;;;;5096798;28;20839;-62
2023/01/29 10:17:54;;;;;;;26.90;18.60;;;3.30;99.90;;;;;;5094970;28;20878;-63
2023/01/29 10:20:45;;;;;;;29.42;19.60;;;3.30;99.90;;;;;;5094373;28;20853;-62
2023/01/29 10:23:23;;;;;;;25.50;17.73;;;3.30;99.90;;;;;;5096388;28;20416;-61
2023/01/29 10:25:52;;;;;;;26.92;18.20;;;3.30;99.90;;;;;;5095452;28;20420;-62
2023/01/29 10:28:22;;;;;;;28.73;19.37;;;3.30;99.90;;;;;;5095671;28;20541;-62
2023/01/29 10:30:54;;;;;;;27.58;19.05;;;3.30;99.90;;;;;;5095978;28;20847;-62
2023/01/29 10:33:28;;;;;;;26.15;18.55;;;3.30;99.90;;;;;;5094870;28;20890;-61
2023/01/29 10:36:00;;;;;;;26.70;17.80;;;3.30;99.90;;;;;;5094660;28;20418;-62
2023/01/29 10:38:38;;;;;;;26.13;18.58;;;3.40;99.90;;;;;;5095556;28;20425;-63
2023/01/29 10:41:43;;;;;;;25.33;17.85;;;3.40;99.90;;;;;;5095935;28;20543;-63
2023/01/29 10:44:23;;;;;;;29.92;19.20;;;3.40;99.90;;;;;;5086923;28;20433;-63
2023/01/29 10:47:12;;;;;;;27.23;18.30;;;3.40;99.90;;;;;;5094542;28;20824;-63
2023/01/29 10:50:05;;;;;;;25.02;17.70;;;3.40;99.90;;;;;;5094616;28;20857;-62
2023/01/29 10:52:43;;;;;;;27.05;17.90;;;3.40;99.90;;;;;;5092856;28;20422;-63
2023/01/29 10:55:28;;;;;;;27.50;17.95;;;3.50;99.90;;;;;;5095618;28;20402;-63
2023/01/29 10:58:07;;;;;;;25.75;17.80;;;3.50;99.90;;;;;;5095081;28;20414;-63
2023/01/29 11:00:37;;;;;;;26.50;16.98;;;3.50;99.90;;;;;;5094432;28;20524;-63
2023/01/29 11:03:14;;;;;;;25.95;17.25;;;3.60;99.90;;;;;;5094224;28;20724;-62
2023/01/29 11:05:48;;;;;;;24.88;17.00;;;3.60;99.90;;;;;;5094977;28;20880;-64
2023/01/29 11:08:17;;;;;;;25.77;16.73;;;3.60;99.90;;;;;;5095436;28;20463;-62
2023/01/29 11:10:51;;;;;;;26.67;17.57;;;3.60;99.90;;;;;;5094102;28;20555;-62
2023/01/29 11:13:18;;;;;;;25.15;17.27;;;3.70;99.90;;;;;;5094346;28;20412;-62
2023/01/29 11:15:45;;;;;;;25.20;17.15;;;3.70;99.90;;;;;;5094475;28;20408;-63
2023/01/29 11:18:14;;;;;;;27.30;17.00;;;3.70;99.90;;;;;;5094579;28;20742;-62
2023/01/29 11:20:43;;;;;;;25.58;16.95;;;3.80;99.90;;;;;;5094050;28;20436;-63
2023/01/29 11:23:25;;;;;;;27.95;17.00;;;3.70;99.90;;;;;;5094368;28;20414;-63
2023/01/29 11:25:53;;;;;;;25.40;17.52;;;3.80;99.90;;;;;;5094249;28;20425;-63
2023/01/29 11:28:35;;;;;;;24.45;16.50;;;3.80;99.90;;;;;;5094984;28;20406;-62
2023/01/29 11:31:03;;;;;;;25.50;17.83;;;3.80;99.90;;;;;;5095226;28;20778;-62
2023/01/29 11:33:32;;;;;;;23.15;15.20;;;3.70;99.90;;;;;;5094534;28;20414;-62
2023/01/29 11:35:59;;;;;;;23.15;16.15;;;3.70;99.90;;;;;;5094104;28;20425;-64
2023/01/29 11:38:27;;;;;;;25.30;17.77;;;3.70;99.90;;;;;;5094512;28;20402;-63
2023/01/29 11:41:04;;;;;;;22.70;16.58;;;3.80;99.90;;;;;;5094382;28;20860;-61
2023/01/29 11:43:32;;;;;;;24.23;16.60;;;3.80;99.90;;;;;;5094542;28;20424;-62
2023/01/29 11:46:03;;;;;;;25.52;17.58;;;3.80;99.90;;;;;;5094878;28;20422;-62
2023/01/29 11:48:41;;;;;;;24.50;16.75;;;3.80;99.90;;;;;;5094528;28;20422;-63
2023/01/29 11:51:11;;;;;;;25.60;17.00;;;3.90;99.90;;;;;;5098116;28;20422;-61
2023/01/29 11:53:40;;;;;;;23.10;16.10;;;3.90;99.90;;;;;;5101892;28;20976;-62
2023/01/29 11:56:18;;;;;;;22.25;15.82;;;3.90;99.90;;;;;;5101213;28;20781;-62
2023/01/29 11:58:46;;;;;;;22.50;15.93;;;3.90;99.90;;;;;;5095719;28;20405;-61
2023/01/29 12:01:16;;;;;;;24.38;16.05;;;3.90;99.80;;;;;;5094630;28;20425;-63
2023/01/29 12:03:50;;;;;;;22.60;15.13;;;3.90;99.90;;;;;;5093779;28;20908;-62
2023/01/29 12:06:20;;;;;;;20.92;14.50;;;4.00;99.90;;;;;;5095126;28;20417;-62
2023/01/29 12:08:56;;;;;;;21.65;15.25;;;4.00;99.60;;;;;;5095984;28;20405;-63
2023/01/29 12:11:30;;;;;;;24.25;15.63;;;4.00;99.00;;;;;;5096054;28;20848;-63
2023/01/29 12:13:59;;;;;;;21.73;15.43;;;4.00;98.60;;;;;;5095286;28;20417;-62
2023/01/29 12:16:31;;;;;;;23.75;16.35;;;4.00;98.40;;;;;;5095999;28;20456;-63
2023/01/29 12:19:09;;;;;;;24.15;16.30;;;4.10;98.40;;;;;;5101005;28;20424;-62
2023/01/29 12:21:42;;;;;;;23.95;16.27;;;4.10;98.20;;;;;;5103738;28;20402;-62
2023/01/29 12:24:18;;;;;;;25.70;17.08;;;4.10;97.90;;;;;;5101446;28;20416;-62
2023/01/29 12:26:52;;;;;;;25.05;16.55;;;4.10;97.90;;;;;;5104060;28;20862;-62
2023/01/29 12:29:32;;;;;;;25.67;16.90;;;4.00;97.60;;;;;;5106319;28;20470;-63
2023/01/29 12:32:06;;;;;;;26.70;17.13;;;4.00;97.60;;;;;;5107706;28;20763;-62
2023/01/29 12:34:43;;;;;;;27.55;17.13;;;3.90;97.40;;;;;;5103814;28;20482;-62
2023/01/29 12:37:16;;;;;;;26.33;17.13;;;3.90;97.60;;;;;;5102367;28;20510;-63
2023/01/29 12:39:43;;;;;;;25.38;17.20;;;3.90;97.90;;;;;;5104367;28;20874;-63
2023/01/29 12:42:16;;;;;;;25.80;17.35;;;3.90;98.00;;;;;;5105801;28;20414;-62
2023/01/29 12:44:46;;;;;;;26.77;17.25;;;3.90;98.00;;;;;;5106040;28;20488;-63
2023/01/29 12:47:19;;;;;;;26.38;18.30;;;3.80;98.00;;;;;;5105456;28;20409;-62
2023/01/29 12:49:52;;;;;;;24.63;16.75;;;3.80;98.30;;;;;;5104345;28;20400;-63
2023/01/29 12:52:23;;;;;;;24.77;16.70;;;3.90;98.20;;;;;;5104871;28;20425;-63
2023/01/29 12:54:55;;;;;;;25.90;16.83;;;3.90;98.10;;;;;;5103870;28;20405;-63
2023/01/29 12:57:25;;;;;;;27.03;17.87;;;3.80;98.20;;;;;;5105001;28;20416;-63
2023/01/29 12:59:57;;;;;;;24.15;16.05;;;3.80;97.90;;;;;;5106819;28;20413;-63
2023/01/29 13:02:33;;;;;;;23.07;15.63;;;3.80;98.00;;;;;;5111527;28;20421;-63
2023/01/29 13:05:07;;;;;;;24.38;15.88;;;3.70;98.10;;;;;;5121523;28;20416;-63
2023/01/29 13:07:40;;;;;;;26.00;17.08;;;3.70;98.20;;;;;;5112389;28;20504;-62
2023/01/29 13:10:12;;;;;;;25.37;16.53;;;3.60;98.40;;;;;;5119147;28;20414;-63
2023/01/29 13:12:53;;;;;;;25.55;16.33;;;3.60;98.70;;;;;;5106249;28;20854;-63
2023/01/29 13:15:24;;;;;;;25.65;16.50;;;3.60;98.80;;;;;;5105450;28;20435;-63
2023/01/29 13:17:55;;;;;;;24.58;16.77;;;3.60;99.00;;;;;;5118455;28;20413;-63
2023/01/29 13:20:28;;;;;;;24.00;16.27;;;3.60;99.10;;;;;;5121260;28;20408;-62